Time;durP1;ratioP1;P1;durP2;ratioP2;P2;SDS_P1;SDS_P2;PMS_P1;PMS_P2;Temp;Humidity;BMP_temperature;BMP_pressure;BME280_temperature;BME280_humidity;BME280_pressure;Samples;Min_cycle;Max_cycle;Signal;HPM_P1;HPM_P2
2023/10/04 00:02:10;;;;;;;;;;;;;;;;;;5067578;28;20445;-75
2023/10/04 00:04:38;;;;;;;;;;;;;;;;;;5065997;28;19931;-77
2023/10/04 00:07:07;;;;;;;;;;;;;;;;;;5072766;28;19924;-77
2023/10/04 00:09:34;;;;;;;;;;;;;;;;;;5072601;28;20027;-77
2023/10/04 00:12:01;;;;;;;;;;;;;;;;;;5055129;28;19929;-74
2023/10/04 00:14:28;;;;;;;;;;;;;;;;;;5072717;28;19929;-75
2023/10/04 00:16:55;;;;;;;;;;;;;;;;;;5071776;28;19924;-76
2023/10/04 00:19:22;;;;;;;;;;;;;;;;;;5069061;28;19924;-76
2023/10/04 00:21:51;;;;;;;;;;;;;;;;;;5055536;28;19948;-78
2023/10/04 00:24:18;;;;;;;;;;;;;;;;;;5051575;28;19924;-77
2023/10/04 00:26:45;;;;;;;;;;;;;;;;;;5066155;28;20007;-75
2023/10/04 00:29:13;;;;;;;;;;;;;;;;;;5072377;28;19970;-76
2023/10/04 00:31:42;;;;;;;;;;;;;;;;;;5069255;28;20015;-76
2023/10/04 00:34:09;;;;;;;;;;;;;;;;;;5066050;28;19942;-77
2023/10/04 00:36:37;;;;;;;;;;;;;;;;;;5070592;28;20391;-78
2023/10/04 00:39:06;;;;;;;;;;;;;;;;;;5072769;28;19928;-77
2023/10/04 00:41:34;;;;;;;;;;;;;;;;;;5058657;28;19970;-78
2023/10/04 00:44:04;;;;;;;;;;;;;;;;;;5052549;28;19940;-78
2023/10/04 00:46:34;;;;;;;;;;;;;;;;;;5063070;28;20032;-78
2023/10/04 00:49:01;;;;;;;;;;;;;;;;;;5070128;28;19928;-78
2023/10/04 00:51:35;;;;;;;;;;;;;;;;;;5065898;28;19924;-78
2023/10/04 00:54:02;;;;;;;;;;;;;;;;;;5059421;28;19925;-77
2023/10/04 00:56:29;;;;;;;;;;;;;;;;;;5064106;28;20359;-78
2023/10/04 00:58:56;;;;;;;;;;;;;;;;;;5071744;28;20383;-77
2023/10/04 01:01:23;;;;;;;;;;;;;;;;;;5071871;28;20436;-78
2023/10/04 01:03:50;;;;;;;;;;;;;;;;;;5071455;28;19924;-77
2023/10/04 01:06:19;;;;;;;;;;;;;;;;;;5062002;28;19925;-78
2023/10/04 01:08:47;;;;;;;;;;;;;;;;;;5052709;28;19925;-78
2023/10/04 01:11:14;;;;;;;;;;;;;;;;;;5064821;28;20268;-77
2023/10/04 01:13:41;;;;;;;;;;;;;;;;;;5055097;28;19925;-78
2023/10/04 01:16:09;;;;;;;;;;;;;;;;;;5060672;28;20006;-78
2023/10/04 01:18:36;;;;;;;;;;;;;;;;;;5072098;28;19926;-77
2023/10/04 01:21:03;;;;;;;;;;;;;;;;;;5072488;28;19966;-78
2023/10/04 01:23:30;;;;;;;;;;;;;;;;;;5056572;28;20276;-77
2023/10/04 01:25:57;;;;;;;;;;;;;;;;;;5057394;28;19924;-78
2023/10/04 01:28:28;;;;;;;;;;;;;;;;;;5069749;28;19925;-77
2023/10/04 01:30:55;;;;;;;;;;;;;;;;;;5070122;28;19929;-77
2023/10/04 01:33:22;;;;;;;;;;;;;;;;;;5072382;28;19924;-76
2023/10/04 01:35:49;;;;;;;;;;;;;;;;;;5072589;28;20376;-76
2023/10/04 01:38:16;;;;;;;;;;;;;;;;;;5074277;28;19974;-76
2023/10/04 01:40:47;;;;;;;;;;;;;;;;;;5075057;28;19932;-76
2023/10/04 01:43:15;;;;;;;;;;;;;;;;;;5074152;28;19924;-76
2023/10/04 01:45:45;;;;;;;;;;;;;;;;;;5070981;28;20378;-76
2023/10/04 01:48:15;;;;;;;;;;;;;;;;;;5074682;28;19932;-77
2023/10/04 01:50:42;;;;;;;;;;;;;;;;;;5075382;28;19931;-76
2023/10/04 01:53:09;;;;;;;;;;;;;;;;;;5075675;28;20018;-77
2023/10/04 01:55:36;;;;;;;;;;;;;;;;;;5075149;28;19924;-77
2023/10/04 01:58:04;;;;;;;;;;;;;;;;;;5059672;28;19974;-76
2023/10/04 02:00:31;;;;;;;;;;;;;;;;;;5065799;28;19931;-77
2023/10/04 02:02:58;;;;;;;;;;;;;;;;;;5075743;28;19925;-76
2023/10/04 02:05:31;;;;;;;;;;;;;;;;;;5075437;28;19925;-79
2023/10/04 02:07:58;;;;;;;;;;;;;;;;;;5077602;28;19932;-77
2023/10/04 02:10:26;;;;;;;;;;;;;;;;;;5075934;28;19925;-77
2023/10/04 02:12:55;;;;;;;;;;;;;;;;;;5072886;28;19925;-76
2023/10/04 02:15:22;;;;;;;;;;;;;;;;;;5071865;28;19999;-76
2023/10/04 02:17:49;;;;;;;;;;;;;;;;;;5073066;28;19928;-76
2023/10/04 02:20:21;;;;;;;;;;;;;;;;;;5075418;28;20003;-77
2023/10/04 02:22:48;;;;;;;;;;;;;;;;;;5058878;28;19924;-76
2023/10/04 02:25:17;;;;;;;;;;;;;;;;;;5054332;28;19932;-77
2023/10/04 02:27:44;;;;;;;;;;;;;;;;;;5063249;28;20453;-78
2023/10/04 02:30:15;;;;;;;;;;;;;;;;;;5054605;28;19931;-77
2023/10/04 02:32:42;;;;;;;;;;;;;;;;;;5071429;28;19947;-77
2023/10/04 02:35:10;;;;;;;;;;;;;;;;;;5069614;28;19929;-77
2023/10/04 02:37:37;;;;;;;;;;;;;;;;;;5055436;28;19925;-77
2023/10/04 02:40:14;;;;;;;;;;;;;;;;;;5065116;28;20011;-77
2023/10/04 02:42:42;;;;;;;;;;;;;;;;;;5055335;28;19924;-77
2023/10/04 02:45:12;;;;;;;;;;;;;;;;;;5057583;28;19928;-76
2023/10/04 02:47:40;;;;;;;;;;;;;;;;;;5068171;28;19929;-77
2023/10/04 02:50:09;;;;;;;;;;;;;;;;;;5073823;28;20441;-77
2023/10/04 02:52:37;;;;;;;;;;;;;;;;;;5068822;28;20379;-77
2023/10/04 02:55:05;;;;;;;;;;;;;;;;;;5074412;28;19933;-77
2023/10/04 02:57:32;;;;;;;;;;;;;;;;;;5072722;28;19924;-77
2023/10/04 02:59:59;;;;;;;;;;;;;;;;;;5073155;28;19924;-77
2023/10/04 03:02:26;;;;;;;;;;;;;;;;;;5074092;28;19931;-78
2023/10/04 03:04:53;;;;;;;;;;;;;;;;;;5074214;28;19924;-78
2023/10/04 03:07:20;;;;;;;;;;;;;;;;;;5073389;28;19924;-78
2023/10/04 03:09:47;;;;;;;;;;;;;;;;;;5054749;28;20352;-77
2023/10/04 03:12:17;;;;;;;;;;;;;;;;;;5066978;28;19924;-77
2023/10/04 03:14:44;;;;;;;;;;;;;;;;;;5074104;28;20391;-78
2023/10/04 03:17:13;;;;;;;;;;;;;;;;;;5072498;28;19970;-78
2023/10/04 03:19:40;;;;;;;;;;;;;;;;;;5054088;28;19959;-78
2023/10/04 03:22:07;;;;;;;;;;;;;;;;;;5066124;28;19976;-78
2023/10/04 03:24:35;;;;;;;;;;;;;;;;;;5074241;28;19924;-78
2023/10/04 03:27:05;;;;;;;;;;;;;;;;;;5071277;28;19931;-77
2023/10/04 03:29:32;;;;;;;;;;;;;;;;;;5073912;28;20329;-76
2023/10/04 03:32:03;;;;;;;;;;;;;;;;;;5073394;28;19978;-76
2023/10/04 03:34:30;;;;;;;;;;;;;;;;;;5074083;28;19928;-77
2023/10/04 03:37:08;;;;;;;;;;;;;;;;;;5060891;28;20031;-77
2023/10/04 03:39:35;;;;;;;;;;;;;;;;;;5053506;28;19925;-76
2023/10/04 03:42:03;;;;;;;;;;;;;;;;;;5053885;28;19924;-76
2023/10/04 03:44:30;;;;;;;;;;;;;;;;;;5068998;28;19929;-76
2023/10/04 03:46:58;;;;;;;;;;;;;;;;;;5054935;28;19931;-77
2023/10/04 03:49:26;;;;;;;;;;;;;;;;;;5064703;28;19931;-77
2023/10/04 03:51:54;;;;;;;;;;;;;;;;;;5072848;28;19970;-77
2023/10/04 03:54:21;;;;;;;;;;;;;;;;;;5073200;28;19972;-76
2023/10/04 03:56:48;;;;;;;;;;;;;;;;;;5072807;28;19924;-76
2023/10/04 03:59:16;;;;;;;;;;;;;;;;;;5072331;28;19925;-77
2023/10/04 04:01:43;;;;;;;;;;;;;;;;;;5067736;28;19963;-76
2023/10/04 04:04:14;;;;;;;;;;;;;;;;;;5071768;28;19929;-74
2023/10/04 04:06:41;;;;;;;;;;;;;;;;;;5072691;28;20303;-75
2023/10/04 04:09:09;;;;;;;;;;;;;;;;;;5073471;28;20041;-76
2023/10/04 04:11:36;;;;;;;;;;;;;;;;;;5059424;28;19979;-77
2023/10/04 04:14:04;;;;;;;;;;;;;;;;;;5060806;28;19925;-77
2023/10/04 04:16:31;;;;;;;;;;;;;;;;;;5073188;28;19993;-77
2023/10/04 04:18:59;;;;;;;;;;;;;;;;;;5052782;28;19979;-77
2023/10/04 04:21:33;;;;;;;;;;;;;;;;;;5052793;28;20384;-77
2023/10/04 04:24:00;;;;;;;;;;;;;;;;;;5063672;28;19929;-76
2023/10/04 04:26:28;;;;;;;;;;;;;;;;;;5072070;28;19967;-76
2023/10/04 04:28:55;;;;;;;;;;;;;;;;;;5072348;28;20442;-75
2023/10/04 04:31:22;;;;;;;;;;;;;;;;;;5071179;28;20019;-75
2023/10/04 04:33:49;;;;;;;;;;;;;;;;;;5069262;28;20183;-75
2023/10/04 04:36:20;;;;;;;;;;;;;;;;;;5052299;28;19925;-75
2023/10/04 04:38:47;;;;;;;;;;;;;;;;;;5052708;28;19924;-76
2023/10/04 04:41:17;;;;;;;;;;;;;;;;;;5052706;28;19924;-75
2023/10/04 04:43:44;;;;;;;;;;;;;;;;;;5055440;28;19970;-76
2023/10/04 04:46:13;;;;;;;;;;;;;;;;;;5072029;28;20445;-75
2023/10/04 04:48:41;;;;;;;;;;;;;;;;;;5072361;28;20337;-75
2023/10/04 04:51:11;;;;;;;;;;;;;;;;;;5066200;28;19969;-76
2023/10/04 04:53:39;;;;;;;;;;;;;;;;;;5070287;28;19925;-76
2023/10/04 04:56:08;;;;;;;;;;;;;;;;;;5071796;28;19938;-76
2023/10/04 04:58:35;;;;;;;;;;;;;;;;;;5062689;28;19931;-75
2023/10/04 05:01:08;;;;;;;;;;;;;;;;;;5071504;28;19924;-75
2023/10/04 05:03:35;;;;;;;;;;;;;;;;;;5072149;28;19928;-77
2023/10/04 05:06:03;;;;;;;;;;;;;;;;;;5072378;28;19924;-75
2023/10/04 05:08:31;;;;;;;;;;;;;;;;;;5063708;28;19932;-76
2023/10/04 05:10:59;;;;;;;;;;;;;;;;;;5055386;28;19925;-77
2023/10/04 05:13:26;;;;;;;;;;;;;;;;;;5052310;28;20307;-80
2023/10/04 05:15:54;;;;;;;;;;;;;;;;;;5052547;28;19925;-80
2023/10/04 05:18:22;;;;;;;;;;;;;;;;;;5053021;28;20319;-79
2023/10/04 05:20:50;;;;;;;;;;;;;;;;;;5064782;28;20464;-80
2023/10/04 05:23:17;;;;;;;;;;;;;;;;;;5072283;28;19928;-80
2023/10/04 05:25:44;;;;;;;;;;;;;;;;;;5060010;28;20017;-80
2023/10/04 05:28:12;;;;;;;;;;;;;;;;;;5050892;28;19925;-80
2023/10/04 05:30:41;;;;;;;;;;;;;;;;;;5064400;28;19935;-80
2023/10/04 05:33:08;;;;;;;;;;;;;;;;;;5061994;28;20382;-79
2023/10/04 05:35:35;;;;;;;;;;;;;;;;;;5052339;28;19925;-79
2023/10/04 05:38:03;;;;;;;;;;;;;;;;;;5052273;28;19925;-77
2023/10/04 05:40:30;;;;;;;;;;;;;;;;;;5052930;28;19939;-81
2023/10/04 05:42:58;;;;;;;;;;;;;;;;;;5060948;28;19924;-79
2023/10/04 05:45:25;;;;;;;;;;;;;;;;;;5072446;28;19925;-77
2023/10/04 05:47:52;;;;;;;;;;;;;;;;;;5072926;28;20368;-79
2023/10/04 05:50:21;;;;;;;;;;;;;;;;;;5072280;28;19924;-79
2023/10/04 05:52:48;;;;;;;;;;;;;;;;;;5070029;28;19988;-78
2023/10/04 05:55:16;;;;;;;;;;;;;;;;;;5071839;28;19924;-79
2023/10/04 05:57:43;;;;;;;;;;;;;;;;;;5065788;28;19925;-80
2023/10/04 06:00:22;;;;;;;;;;;;;;;;;;5059541;28;19975;-80
2023/10/04 06:02:49;;;;;;;;;;;;;;;;;;5070369;28;19924;-79
2023/10/04 06:05:19;;;;;;;;;;;;;;;;;;5051330;28;20023;-79
2023/10/04 06:07:46;;;;;;;;;;;;;;;;;;5054346;28;19932;-80
2023/10/04 06:10:14;;;;;;;;;;;;;;;;;;5071375;28;19931;-83
2023/10/04 06:12:41;;;;;;;;;;;;;;;;;;5070847;28;19948;-82
2023/10/04 06:15:10;;;;;;;;;;;;;;;;;;5071398;28;19931;-78
2023/10/04 06:17:42;;;;;;;;;;;;;;;;;;5057250;28;19940;-81
2023/10/04 06:20:23;;;;;;;;;;;;;;;;;;5059866;28;20390;-82
2023/10/04 06:22:50;;;;;;;;;;;;;;;;;;5069909;28;20011;-77
2023/10/04 06:25:17;;;;;;;;;;;;;;;;;;5072118;28;19928;-78
2023/10/04 06:27:44;;;;;;;;;;;;;;;;;;5068995;28;20345;-77
2023/10/04 06:30:12;;;;;;;;;;;;;;;;;;5057254;28;19924;-75
2023/10/04 06:32:39;;;;;;;;;;;;;;;;;;5066199;28;19925;-76
2023/10/04 06:35:08;;;;;;;;;;;;;;;;;;5057860;28;19947;-76
2023/10/04 06:37:36;;;;;;;;;;;;;;;;;;5071602;28;19932;-76
2023/10/04 06:40:04;;;;;;;;;;;;;;;;;;5071273;28;19936;-76
2023/10/04 06:42:32;;;;;;;;;;;;;;;;;;5070144;28;19928;-76
2023/10/04 06:44:59;;;;;;;;;;;;;;;;;;5073042;28;19925;-75
2023/10/04 06:47:27;;;;;;;;;;;;;;;;;;5064025;28;20654;-77
2023/10/04 06:49:58;;;;;;;;;;;;;;;;;;5068581;28;19935;-75
2023/10/04 06:52:25;;;;;;;;;;;;;;;;;;5061114;28;19928;-75
2023/10/04 06:54:53;;;;;;;;;;;;;;;;;;5056146;28;20454;-74
2023/10/04 06:57:20;;;;;;;;;;;;;;;;;;5063546;28;20015;-75
2023/10/04 06:59:48;;;;;;;;;;;;;;;;;;5066571;28;20614;-73
2023/10/04 07:02:15;;;;;;;;;;;;;;;;;;5064653;28;19925;-74
2023/10/04 07:04:42;;;;;;;;;;;;;;;;;;5064577;28;19928;-75
2023/10/04 07:07:09;;;;;;;;;;;;;;;;;;5076586;28;19975;-74
2023/10/04 07:09:36;;;;;;;;;;;;;;;;;;5067349;28;19925;-76
2023/10/04 07:12:04;;;;;;;;;;;;;;;;;;5073850;28;19924;-74
2023/10/04 07:14:31;;;;;;;;;;;;;;;;;;5072816;28;19931;-75
2023/10/04 07:16:59;;;;;;;;;;;;;;;;;;5073321;28;19999;-75
2023/10/04 07:19:29;;;;;;;;;;;;;;;;;;5067566;28;19924;-76
2023/10/04 07:21:57;;;;;;;;;;;;;;;;;;5070832;28;20017;-76
2023/10/04 07:24:24;;;;;;;;;;;;;;;;;;5063896;28;20376;-76
2023/10/04 07:26:55;;;;;;;;;;;;;;;;;;5071652;28;19980;-75
2023/10/04 07:29:22;;;;;;;;;;;;;;;;;;5073200;28;19929;-75
2023/10/04 07:31:51;;;;;;;;;;;;;;;;;;5072045;28;19928;-75
2023/10/04 07:34:18;;;;;;;;;;;;;;;;;;5069505;28;19971;-71
2023/10/04 07:36:45;;;;;;;;;;;;;;;;;;5061036;28;19924;-73
2023/10/04 07:39:15;;;;;;;;;;;;;;;;;;5065969;28;20372;-74
2023/10/04 07:41:42;;;;;;;;;;;;;;;;;;5068946;28;20366;-75
2023/10/04 07:44:10;;;;;;;;;;;;;;;;;;5066611;28;19964;-73
2023/10/04 07:46:37;;;;;;;;;;;;;;;;;;5065472;28;19931;-74
2023/10/04 07:49:05;;;;;;;;;;;;;;;;;;5071895;28;19931;-76
2023/10/04 07:51:32;;;;;;;;;;;;;;;;;;5075022;28;19939;-76
2023/10/04 07:53:59;;;;;;;;;;;;;;;;;;5072152;28;20011;-77
2023/10/04 07:56:26;;;;;;;;;;;;;;;;;;5066737;28;19929;-76
2023/10/04 07:58:53;;;;;;;;;;;;;;;;;;5063732;28;19978;-77
2023/10/04 08:01:20;;;;;;;;;;;;;;;;;;5071991;28;19978;-78
2023/10/04 08:03:48;;;;;;;;;;;;;;;;;;5071571;28;20345;-77
2023/10/04 08:06:15;;;;;;;;;;;;;;;;;;5066782;28;19943;-78
2023/10/04 08:08:42;;;;;;;;;;;;;;;;;;5068910;28;19999;-76
2023/10/04 08:11:09;;;;;;;;;;;;;;;;;;5065522;28;19924;-76
2023/10/04 08:13:36;;;;;;;;;;;;;;;;;;5068932;28;19987;-78
2023/10/04 08:16:04;;;;;;;;;;;;;;;;;;5065030;28;19924;-71
2023/10/04 08:18:31;;;;;;;;;;;;;;;;;;5072471;28;19925;-71
2023/10/04 08:20:58;;;;;;;;;;;;;;;;;;5071407;28;19928;-71
2023/10/04 08:23:26;;;;;;;;;;;;;;;;;;5066114;28;19932;-71
2023/10/04 08:25:53;;;;;;;;;;;;;;;;;;5058698;28;20003;-74
2023/10/04 08:28:20;;;;;;;;;;;;;;;;;;5069646;28;19977;-72
2023/10/04 08:30:51;;;;;;;;;;;;;;;;;;5066989;28;19960;-72
2023/10/04 08:33:19;;;;;;;;;;;;;;;;;;5068218;28;19970;-72
2023/10/04 08:35:46;;;;;;;;;;;;;;;;;;5061119;28;20039;-72
2023/10/04 08:38:16;;;;;;;;;;;;;;;;;;5065752;28;20062;-73
2023/10/04 08:40:43;;;;;;;;;;;;;;;;;;5071126;28;20394;-73
2023/10/04 08:43:13;;;;;;;;;;;;;;;;;;5063466;28;19931;-74
2023/10/04 08:45:42;;;;;;;;;;;;;;;;;;5060518;28;19928;-73
2023/10/04 08:48:10;;;;;;;;;;;;;;;;;;5066748;28;19954;-73
2023/10/04 08:50:38;;;;;;;;;;;;;;;;;;5083380;28;20015;-73
2023/10/04 08:53:06;;;;;;;;;;;;;;;;;;5060744;28;19925;-73
2023/10/04 08:55:33;;;;;;;;;;;;;;;;;;5063430;28;19925;-74
2023/10/04 08:58:02;;;;;;;;;;;;;;;;;;5064448;28;20314;-77
2023/10/04 09:00:29;;;;;;;;;;;;;;;;;;5062462;28;19924;-77
2023/10/04 09:02:57;;;;;;;;;;;;;;;;;;5066059;28;19932;-76
2023/10/04 09:05:24;;;;;;;;;;;;;;;;;;5064281;28;19933;-77
2023/10/04 09:07:51;;;;;;;;;;;;;;;;;;5061707;28;19951;-75
2023/10/04 09:10:18;;;;;;;;;;;;;;;;;;5062410;28;19940;-77
2023/10/04 09:12:47;;;;;;;;;;;;;;;;;;5060429;28;19933;-77
2023/10/04 09:15:14;;;;;;;;;;;;;;;;;;5066360;28;19925;-76
2023/10/04 09:17:41;;;;;;;;;;;;;;;;;;5063332;28;19971;-78
2023/10/04 09:20:11;;;;;;;;;;;;;;;;;;5060295;28;19978;-78
2023/10/04 09:22:38;;;;;;;;;;;;;;;;;;5066846;28;19924;-78
2023/10/04 09:25:05;;;;;;;;;;;;;;;;;;5069604;28;20375;-78
2023/10/04 09:27:32;;;;;;;;;;;;;;;;;;5066677;28;19925;-78
2023/10/04 09:30:02;;;;;;;;;;;;;;;;;;5057389;28;19924;-71
2023/10/04 09:32:29;;;;;;;;;;;;;;;;;;5059443;28;19939;-77
2023/10/04 09:34:57;;;;;;;;;;;;;;;;;;5069822;28;19930;-77
2023/10/04 09:37:24;;;;;;;;;;;;;;;;;;5061708;28;19938;-76
2023/10/04 09:39:54;;;;;;;;;;;;;;;;;;5065319;28;19994;-78
2023/10/04 09:42:23;;;;;;;;;;;;;;;;;;5064307;28;19924;-79
2023/10/04 09:44:54;;;;;;;;;;;;;;;;;;5069058;28;20340;-78
2023/10/04 09:47:24;;;;;;;;;;;;;;;;;;5064426;28;20005;-74
2023/10/04 09:49:51;;;;;;;;;;;;;;;;;;5066335;28;20344;-74
2023/10/04 09:52:18;;;;;;;;;;;;;;;;;;5062974;28;20291;-74
2023/10/04 09:54:45;;;;;;;;;;;;;;;;;;5063558;28;19983;-74
2023/10/04 09:57:14;;;;;;;;;;;;;;;;;;5066860;28;19925;-74
2023/10/04 09:59:43;;;;;;;;;;;;;;;;;;5069273;28;19974;-75
2023/10/04 10:02:10;;;;;;;;;;;;;;;;;;5069026;28;19956;-74
2023/10/04 10:04:37;;;;;;;;;;;;;;;;;;5066849;28;19975;-72
2023/10/04 10:07:09;;;;;;;;;;;;;;;;;;5073032;28;19935;-74
2023/10/04 10:09:36;;;;;;;;;;;;;;;;;;5074782;28;20011;-75
2023/10/04 10:12:04;;;;;;;;;;;;;;;;;;5071601;28;19925;-78
2023/10/04 10:14:31;;;;;;;;;;;;;;;;;;5072238;28;20321;-76
2023/10/04 10:16:58;;;;;;;;;;;;;;;;;;5073357;28;20298;-76
2023/10/04 10:19:26;;;;;;;;;;;;;;;;;;5073982;28;20390;-76
2023/10/04 10:21:54;;;;;;;;;;;;;;;;;;5074220;28;19924;-79
2023/10/04 10:24:21;;;;;;;;;;;;;;;;;;5067483;28;19931;-82
2023/10/04 10:26:48;;;;;;;;;;;;;;;;;;5064463;28;20384;-80
2023/10/04 10:29:15;;;;;;;;;;;;;;;;;;5071064;28;19928;-73
2023/10/04 10:31:42;;;;;;;;;;;;;;;;;;5061983;28;20330;-75
2023/10/04 10:34:09;;;;;;;;;;;;;;;;;;5071459;28;20314;-73
2023/10/04 10:36:37;;;;;;;;;;;;;;;;;;5065915;28;19933;-72
2023/10/04 10:39:04;;;;;;;;;;;;;;;;;;5071862;28;20022;-72
2023/10/04 10:41:31;;;;;;;;;;;;;;;;;;5066573;28;19932;-74
2023/10/04 10:43:58;;;;;;;;;;;;;;;;;;5072759;28;19924;-75
2023/10/04 10:46:25;;;;;;;;;;;;;;;;;;5068208;28;19950;-80
2023/10/04 10:48:53;;;;;;;;;;;;;;;;;;5073729;28;20330;-74
2023/10/04 10:51:20;;;;;;;;;;;;;;;;;;5071213;28;19924;-74
2023/10/04 10:53:47;;;;;;;;;;;;;;;;;;5072552;28;19947;-74
2023/10/04 10:56:14;;;;;;;;;;;;;;;;;;5069371;28;19936;-72
2023/10/04 10:58:41;;;;;;;;;;;;;;;;;;5071042;28;20047;-77
2023/10/04 11:01:08;;;;;;;;;;;;;;;;;;5068312;28;19933;-77
2023/10/04 11:03:35;;;;;;;;;;;;;;;;;;5066387;28;20090;-78
2023/10/04 11:06:03;;;;;;;;;;;;;;;;;;5064008;28;19958;-76
2023/10/04 11:08:30;;;;;;;;;;;;;;;;;;5058861;28;19924;-79
2023/10/04 11:10:57;;;;;;;;;;;;;;;;;;5079111;22;20009;-78
2023/10/04 11:13:25;;;;;;;;;;;;;;;;;;5073888;28;19924;-79
2023/10/04 11:15:52;;;;;;;;;;;;;;;;;;5060079;28;20010;-79
2023/10/04 11:18:19;;;;;;;;;;;;;;;;;;5063367;28;19971;-77
2023/10/04 11:20:46;;;;;;;;;;;;;;;;;;5070302;28;19928;-76
2023/10/04 11:23:13;;;;;;;;;;;;;;;;;;5065288;28;19974;-77
2023/10/04 11:25:40;;;;;;;;;;;;;;;;;;5065933;28;19947;-76
2023/10/04 11:28:07;;;;;;;;;;;;;;;;;;5068420;28;19924;-76
2023/10/04 11:30:34;;;;;;;;;;;;;;;;;;5071862;28;19974;-76
2023/10/04 11:33:02;;;;;;;;;;;;;;;;;;5065921;28;19936;-77
2023/10/04 11:35:29;;;;;;;;;;;;;;;;;;5069601;28;20099;-75
2023/10/04 11:37:56;;;;;;;;;;;;;;;;;;5063723;28;20236;-76
2023/10/04 11:40:23;;;;;;;;;;;;;;;;;;5067523;28;20002;-77
2023/10/04 11:42:52;;;;;;;;;;;;;;;;;;5071778;28;19929;-75
2023/10/04 11:45:19;;;;;;;;;;;;;;;;;;5071361;28;19928;-76
2023/10/04 11:47:46;;;;;;;;;;;;;;;;;;5062799;28;19925;-73
2023/10/04 11:50:13;;;;;;;;;;;;;;;;;;5064148;28;20421;-74
2023/10/04 11:52:40;;;;;;;;;;;;;;;;;;5068230;28;19935;-74
2023/10/04 11:55:07;;;;;;;;;;;;;;;;;;5069025;28;19928;-72
2023/10/04 11:57:37;;;;;;;;;;;;;;;;;;5071994;28;19924;-73
2023/10/04 12:00:10;;;;;;;;;;;;;;;;;;5064385;28;19928;-72
2023/10/04 12:02:37;;;;;;;;;;;;;;;;;;5064455;28;19932;-73
2023/10/04 12:05:05;;;;;;;;;;;;;;;;;;5064408;28;20033;-73
2023/10/04 12:07:32;;;;;;;;;;;;;;;;;;5070269;28;19925;-73
2023/10/04 12:09:59;;;;;;;;;;;;;;;;;;5063334;28;20010;-73
2023/10/04 12:12:26;;;;;;;;;;;;;;;;;;5058549;28;19940;-75
2023/10/04 12:14:53;;;;;;;;;;;;;;;;;;5069340;28;19932;-73
2023/10/04 12:17:20;;;;;;;;;;;;;;;;;;5066251;28;19924;-73
2023/10/04 12:19:47;;;;;;;;;;;;;;;;;;5059555;28;19940;-72
2023/10/04 12:22:14;;;;;;;;;;;;;;;;;;5062152;28;19985;-76
2023/10/04 12:24:41;;;;;;;;;;;;;;;;;;5061597;28;19925;-74
2023/10/04 12:27:08;;;;;;;;;;;;;;;;;;5063468;28;19932;-74
2023/10/04 12:29:36;;;;;;;;;;;;;;;;;;5070159;28;19932;-73
2023/10/04 12:32:03;;;;;;;;;;;;;;;;;;5065723;28;19931;-74
2023/10/04 12:34:30;;;;;;;;;;;;;;;;;;5067633;28;20011;-73
2023/10/04 12:36:57;;;;;;;;;;;;;;;;;;5059124;28;20526;-73
2023/10/04 12:39:24;;;;;;;;;;;;;;;;;;5061565;28;20021;-73
2023/10/04 12:41:52;;;;;;;;;;;;;;;;;;5063323;28;20627;-73
2023/10/04 12:44:19;;;;;;;;;;;;;;;;;;5055576;28;19933;-75
2023/10/04 12:46:47;;;;;;;;;;;;;;;;;;5060868;28;19932;-72
2023/10/04 12:49:18;;;;;;;;;;;;;;;;;;5061078;28;20546;-72
2023/10/04 12:51:46;;;;;;;;;;;;;;;;;;5057030;28;20012;-71
2023/10/04 12:54:13;;;;;;;;;;;;;;;;;;5064703;28;20031;-76
2023/10/04 12:56:40;;;;;;;;;;;;;;;;;;5068376;28;19954;-75
2023/10/04 12:59:07;;;;;;;;;;;;;;;;;;5057979;28;19928;-75
2023/10/04 13:01:34;;;;;;;;;;;;;;;;;;5064240;28;19931;-77
2023/10/04 13:04:01;;;;;;;;;;;;;;;;;;5060534;28;19928;-78
2023/10/04 13:06:28;;;;;;;;;;;;;;;;;;5057643;28;20031;-77
2023/10/04 13:08:55;;;;;;;;;;;;;;;;;;5065082;28;20391;-74
2023/10/04 13:11:24;;;;;;;;;;;;;;;;;;5060343;28;19966;-73
2023/10/04 13:13:51;;;;;;;;;;;;;;;;;;5064215;28;19933;-73
2023/10/04 13:16:18;;;;;;;;;;;;;;;;;;5062394;28;19924;-73
2023/10/04 13:18:48;;;;;;;;;;;;;;;;;;5062705;28;19928;-73
2023/10/04 13:21:16;;;;;;;;;;;;;;;;;;5063719;28;20011;-72
2023/10/04 13:23:43;;;;;;;;;;;;;;;;;;5065997;28;20433;-73
2023/10/04 13:26:10;;;;;;;;;;;;;;;;;;5057622;28;19933;-74
2023/10/04 13:28:37;;;;;;;;;;;;;;;;;;5065861;28;20360;-74
2023/10/04 13:31:05;;;;;;;;;;;;;;;;;;5058347;28;22107;-73
2023/10/04 13:33:32;;;;;;;;;;;;;;;;;;5073361;28;20666;-74
2023/10/04 13:35:59;;;;;;;;;;;;;;;;;;5066990;28;19971;-75
2023/10/04 13:38:27;;;;;;;;;;;;;;;;;;5061354;28;19936;-74
2023/10/04 13:40:54;;;;;;;;;;;;;;;;;;5072115;28;19924;-74
2023/10/04 13:43:22;;;;;;;;;;;;;;;;;;5072781;28;19924;-74
2023/10/04 13:45:50;;;;;;;;;;;;;;;;;;5065963;28;19937;-75
2023/10/04 13:48:19;;;;;;;;;;;;;;;;;;5072429;28;20019;-74
2023/10/04 13:50:47;;;;;;;;;;;;;;;;;;5064676;28;20419;-74
2023/10/04 13:53:17;;;;;;;;;;;;;;;;;;5071044;28;20006;-74
2023/10/04 13:55:46;;;;;;;;;;;;;;;;;;5067057;28;19934;-74
2023/10/04 13:58:17;;;;;;;;;;;;;;;;;;5070358;28;19927;-74
2023/10/04 14:00:45;;;;;;;;;;;;;;;;;;5070398;28;19928;-74
2023/10/04 14:03:12;;;;;;;;;;;;;;;;;;5067825;28;19939;-74
2023/10/04 14:05:40;;;;;;;;;;;;;;;;;;5065222;28;20318;-74
2023/10/04 14:08:09;;;;;;;;;;;;;;;;;;5066657;28;19975;-74
2023/10/04 14:10:36;;;;;;;;;;;;;;;;;;5060665;28;20611;-74
2023/10/04 14:13:03;;;;;;;;;;;;;;;;;;5061344;28;19928;-77
2023/10/04 14:15:31;;;;;;;;;;;;;;;;;;5060404;28;20026;-74
2023/10/04 14:17:58;;;;;;;;;;;;;;;;;;5077041;28;20022;-74
2023/10/04 14:20:25;;;;;;;;;;;;;;;;;;5067229;28;19978;-74
2023/10/04 14:22:52;;;;;;;;;;;;;;;;;;5074783;28;19959;-73
2023/10/04 14:25:20;;;;;;;;;;;;;;;;;;5066252;28;19960;-74
2023/10/04 14:27:47;;;;;;;;;;;;;;;;;;5070214;28;20368;-74
2023/10/04 14:30:17;;;;;;;;;;;;;;;;;;5061317;28;20387;-77
2023/10/04 14:32:44;;;;;;;;;;;;;;;;;;5057504;28;19925;-74
2023/10/04 14:35:11;;;;;;;;;;;;;;;;;;5061828;28;19938;-75
2023/10/04 14:37:38;;;;;;;;;;;;;;;;;;5059379;28;19928;-77
2023/10/04 14:40:10;;;;;;;;;;;;;;;;;;5062288;28;19928;-75
2023/10/04 14:42:38;;;;;;;;;;;;;;;;;;5061856;28;20066;-76
2023/10/04 14:45:06;;;;;;;;;;;;;;;;;;5066778;28;19996;-74
2023/10/04 14:47:34;;;;;;;;;;;;;;;;;;5060329;28;20422;-75
2023/10/04 14:50:01;;;;;;;;;;;;;;;;;;5064974;28;20078;-75
2023/10/04 14:52:30;;;;;;;;;;;;;;;;;;5066513;28;20065;-75
2023/10/04 14:54:58;;;;;;;;;;;;;;;;;;5066309;28;19930;-75
2023/10/04 14:57:26;;;;;;;;;;;;;;;;;;5069585;28;19925;-75
2023/10/04 14:59:54;;;;;;;;;;;;;;;;;;5064704;28;19935;-74
2023/10/04 15:02:21;;;;;;;;;;;;;;;;;;5069590;28;19931;-74
2023/10/04 15:04:48;;;;;;;;;;;;;;;;;;5059874;28;20391;-75
2023/10/04 15:07:18;;;;;;;;;;;;;;;;;;5062117;28;19982;-74
2023/10/04 15:09:45;;;;;;;;;;;;;;;;;;5058708;28;19986;-75
2023/10/04 15:12:12;;;;;;;;;;;;;;;;;;5061150;28;19982;-74
2023/10/04 15:14:39;;;;;;;;;;;;;;;;;;5064569;28;19951;-74
2023/10/04 15:17:07;;;;;;;;;;;;;;;;;;5065834;28;20350;-74
2023/10/04 15:19:34;;;;;;;;;;;;;;;;;;5061670;28;19932;-74
2023/10/04 15:22:03;;;;;;;;;;;;;;;;;;5066480;28;19968;-75
2023/10/04 15:24:30;;;;;;;;;;;;;;;;;;5069001;28;19936;-74
2023/10/04 15:26:57;;;;;;;;;;;;;;;;;;5064832;28;20392;-74
2023/10/04 15:29:26;;;;;;;;;;;;;;;;;;5064869;28;19933;-74
2023/10/04 15:31:53;;;;;;;;;;;;;;;;;;5061763;28;19952;-75
2023/10/04 15:34:20;;;;;;;;;;;;;;;;;;5061742;28;19924;-74
2023/10/04 15:36:48;;;;;;;;;;;;;;;;;;5064540;28;20025;-74
2023/10/04 15:39:20;;;;;;;;;;;;;;;;;;5062686;28;20298;-74
2023/10/04 15:41:48;;;;;;;;;;;;;;;;;;5063943;28;19925;-75
2023/10/04 15:44:15;;;;;;;;;;;;;;;;;;5064120;28;19968;-74
2023/10/04 15:46:44;;;;;;;;;;;;;;;;;;5064189;28;19924;-74
2023/10/04 15:49:12;;;;;;;;;;;;;;;;;;5068382;28;19976;-74
2023/10/04 15:51:39;;;;;;;;;;;;;;;;;;5064287;28;19932;-73
2023/10/04 15:54:06;;;;;;;;;;;;;;;;;;5068685;28;19930;-74
2023/10/04 15:56:33;;;;;;;;;;;;;;;;;;5062273;28;19924;-74
2023/10/04 15:59:01;;;;;;;;;;;;;;;;;;5058682;28;20155;-74
2023/10/04 16:01:29;;;;;;;;;;;;;;;;;;5058713;28;20299;-73
2023/10/04 16:03:56;;;;;;;;;;;;;;;;;;5059542;28;19925;-70
2023/10/04 16:06:23;;;;;;;;;;;;;;;;;;5068376;28;19932;-73
2023/10/04 16:08:50;;;;;;;;;;;;;;;;;;5056262;28;19991;-73
2023/10/04 16:11:17;;;;;;;;;;;;;;;;;;5062355;28;20379;-78
2023/10/04 16:13:44;;;;;;;;;;;;;;;;;;5063479;28;19929;-73
2023/10/04 16:16:13;;;;;;;;;;;;;;;;;;5065119;28;19925;-73
2023/10/04 16:18:40;;;;;;;;;;;;;;;;;;5068138;28;19936;-73
2023/10/04 16:21:07;;;;;;;;;;;;;;;;;;5059293;28;19924;-74
2023/10/04 16:23:34;;;;;;;;;;;;;;;;;;5067204;28;19925;-73
2023/10/04 16:26:01;;;;;;;;;;;;;;;;;;5066329;28;19930;-75
2023/10/04 16:28:28;;;;;;;;;;;;;;;;;;5057804;28;19978;-74
2023/10/04 16:30:57;;;;;;;;;;;;;;;;;;5056992;28;19986;-74
2023/10/04 16:33:24;;;;;;;;;;;;;;;;;;5061257;28;19935;-73
2023/10/04 16:35:53;;;;;;;;;;;;;;;;;;5056638;28;20130;-75
2023/10/04 16:38:20;;;;;;;;;;;;;;;;;;5064004;28;19933;-74
2023/10/04 16:40:47;;;;;;;;;;;;;;;;;;5058754;28;20391;-73
2023/10/04 16:43:14;;;;;;;;;;;;;;;;;;5057725;28;19978;-74
2023/10/04 16:45:41;;;;;;;;;;;;;;;;;;5062175;28;19990;-75
2023/10/04 16:48:09;;;;;;;;;;;;;;;;;;5067747;28;19924;-74
2023/10/04 16:50:36;;;;;;;;;;;;;;;;;;5062670;28;19929;-74